Huvudsida
METAR-TAF:

METAR-TAF

Flygplatser :

Ventspils lidosta

Ventspils, Lettland

latitud: 57-21-28N, longitud: 021-32-39E, höjd: 6 m

Aktuellt väderrapport

Denna rapport gjordes för 26 minuter sedan, klockan 11:50 UTC
Vind 10 kt från nord
Temperatur 21°C
Fuktighet 64%
Tryck 1017 hPa
Sikt 10 km eller mer
Inga moln under 1 500 m eller inga cumulonimbus

METAR: EVVA 241150Z AUTO 35010KT CAVOK 21/14 Q1017

Tid: 15:16 (12:16 UTC)

Väderprognos

Denna rapport gjordes för 31 timmar och 10 minuter sedan, klockan 05:06 UTC
Prognos gäller från 23 kl. 06 UTC till 23 kl. 15 UTC
Vind 7 kt från syd
Sikt: 9000 m
Mulet på en höjd av 800 ft
Temporärt
från 23 kl. 06 UTC till 23 kl. 12 UTC
Sikt: 3000 m
Brutna moln på en höjd av 100 ft
Mulet på en höjd av 700 ft
lätt regn, fuktdis,

TAF: EVVA 230506Z 2306/2315 17007KT 9000 OVC008 TEMPO 2306/2312 3000 -RA BR BKN001 OVC007

Aktuella väderrapporter och prognoser från 4000 flygplatser (METAR- och TAF-rapporter).

De tillgängliga stationerna syns som gula och röda prickar på kartan.

För musen över prickarna för att se namnen på stationerna.

Klicka sedan för att få väderrapporter och prognoser.

För att ändra kartan: Klicka på de gröna knapparna med ett svart kors på för att zooma in; den gröna knappen med ett streck på för att zooma ut; eller på de gröna pilarna för angränsande kartor.


METAR-TAF: